Forside
METAR-TAF:

METAR-TAF

Lufthavne :

Mashhad, Iran

Breddekreds: 36-16N, længdekreds: 059-38E, højde: 989 m

Aktuelle vejr

Denne rapport blev lavet for 37 minutter siden, kl. 11:00 UTC
Vind 6 kt fra øst
Temperatur 16°C
Fugtighed 34%
Tryk 1026 hPa
Sigt 10 km eller mere
ingen skyer under 1500m og ingen cumulonimbus

METAR: OIMM 171100Z 08006KT CAVOK 16/M00 Q1026 A3030

Tid: 15:07 (11:37 UTC)

Vejrudsigter

Denne rapport blev lavet for 6 timer og 7 minutter siden, kl. 05:30 UTC
Foreløbig gælder fra 17 på 06 UTC til 18 på 12 UTC
Vind 8 kt fra sydsydøst
Sigt: 7000 m
Nogle få skyer i en højde af 4000 ft
Midlertidig
fra 17 på 12 UTC til 17 på 18 UTC
Vind 17 kt fra østsydøst
Nogle få skyer i en højde af 3500 ft, Cumulonimbus.
Spredte skyer i en højde af 4000 ft
Spredte skyer i en højde af 10000 ft
Midlertidig
fra 18 på 09 UTC til 18 på 12 UTC
Vind 17 kt fra østsydøst

TAF: OIMM 170530Z 1706/1812 15004MPS 7000 FEW040 TEMPO 1712/1718 12009MPS FEW035CB SCT040 SCT100 TEMPO 1809/1812 12009MPS

Vejrobservationer og prognoser fra mere end 4000 lufthavne (METAR og TAF).

De gule og røde prikker repræsenterer de meteorologiske stationer.

Flyt musen over at se navnet på stationen.

Så klik over at se vejr observationer og prognoser.

At skifte det kort: Klik på de grønne knapper med et sort kors for at zoome ind; på den grønne knap med en bindestreg for at zoome ud; eller på de grønne pile for tilstødende kort.


METAR-TAF: